sensor_id;sensor_type;location;lat;lon;timestamp;temperature;humidity
75372;HTU21D;63956;52.006;5.878;2023-04-19T00:01:11;11.56;61.29
75372;HTU21D;63956;52.006;5.878;2023-04-19T00:03:43;11.57;61.40
75372;HTU21D;63956;52.006;5.878;2023-04-19T00:06:12;11.57;61.46
75372;HTU21D;63956;52.006;5.878;2023-04-19T00:08:42;11.61;61.47
75372;HTU21D;63956;52.006;5.878;2023-04-19T00:11:12;11.66;61.46
75372;HTU21D;63956;52.006;5.878;2023-04-19T00:13:41;11.70;61.49
75372;HTU21D;63956;52.006;5.878;2023-04-19T00:16:10;11.72;61.47
75372;HTU21D;63956;52.006;5.878;2023-04-19T00:18:39;11.75;61.29
75372;HTU21D;63956;52.006;5.878;2023-04-19T00:21:11;11.74;61.38
75372;HTU21D;63956;52.006;5.878;2023-04-19T00:23:40;11.72;61.47
75372;HTU21D;63956;52.006;5.878;2023-04-19T00:26:09;11.76;61.37
75372;HTU21D;63956;52.006;5.878;2023-04-19T00:28:42;11.72;61.48
75372;HTU21D;63956;52.006;5.878;2023-04-19T00:31:11;11.71;61.61
75372;HTU21D;63956;52.006;5.878;2023-04-19T00:33:40;11.74;61.46
75372;HTU21D;63956;52.006;5.878;2023-04-19T00:36:12;11.72;61.57
75372;HTU21D;63956;52.006;5.878;2023-04-19T00:38:41;11.73;61.60
75372;HTU21D;63956;52.006;5.878;2023-04-19T00:41:10;11.74;61.52
75372;HTU21D;63956;52.006;5.878;2023-04-19T00:43:39;11.70;61.66
75372;HTU21D;63956;52.006;5.878;2023-04-19T00:46:08;11.68;61.79
75372;HTU21D;63956;52.006;5.878;2023-04-19T00:48:38;11.66;61.89
75372;HTU21D;63956;52.006;5.878;2023-04-19T00:51:07;11.66;61.90
75372;HTU21D;63956;52.006;5.878;2023-04-19T00:53:39;11.63;61.95
75372;HTU21D;63956;52.006;5.878;2023-04-19T00:56:09;11.61;61.94
75372;HTU21D;63956;52.006;5.878;2023-04-19T00:58:38;11.60;62.01
75372;HTU21D;63956;52.006;5.878;2023-04-19T01:01:08;11.59;62.00
75372;HTU21D;63956;52.006;5.878;2023-04-19T01:03:38;11.56;62.06
75372;HTU21D;63956;52.006;5.878;2023-04-19T01:06:07;11.57;62.10
75372;HTU21D;63956;52.006;5.878;2023-04-19T01:08:39;11.53;62.14
75372;HTU21D;63956;52.006;5.878;2023-04-19T01:11:08;11.51;62.20
75372;HTU21D;63956;52.006;5.878;2023-04-19T01:13:37;11.52;62.08
75372;HTU21D;63956;52.006;5.878;2023-04-19T01:16:06;11.47;62.16
75372;HTU21D;63956;52.006;5.878;2023-04-19T01:18:36;11.45;62.22
75372;HTU21D;63956;52.006;5.878;2023-04-19T01:21:06;11.41;62.31
75372;HTU21D;63956;52.006;5.878;2023-04-19T01:23:38;11.41;62.35
75372;HTU21D;63956;52.006;5.878;2023-04-19T01:26:07;11.39;62.38
75372;HTU21D;63956;52.006;5.878;2023-04-19T01:28:36;11.41;62.26
75372;HTU21D;63956;52.006;5.878;2023-04-19T01:31:05;11.33;62.38
75372;HTU21D;63956;52.006;5.878;2023-04-19T01:33:36;11.32;62.47
75372;HTU21D;63956;52.006;5.878;2023-04-19T01:36:08;11.29;62.55
75372;HTU21D;63956;52.006;5.878;2023-04-19T01:38:43;11.26;62.66
75372;HTU21D;63956;52.006;5.878;2023-04-19T01:41:12;11.25;62.72
75372;HTU21D;63956;52.006;5.878;2023-04-19T01:43:41;11.24;62.60
75372;HTU21D;63956;52.006;5.878;2023-04-19T01:46:10;11.19;62.71
75372;HTU21D;63956;52.006;5.878;2023-04-19T01:48:39;11.18;62.63
75372;HTU21D;63956;52.006;5.878;2023-04-19T01:51:08;11.11;62.86
75372;HTU21D;63956;52.006;5.878;2023-04-19T01:53:37;11.10;62.77
75372;HTU21D;63956;52.006;5.878;2023-04-19T01:56:09;11.03;62.98
75372;HTU21D;63956;52.006;5.878;2023-04-19T01:58:38;10.98;63.09
75372;HTU21D;63956;52.006;5.878;2023-04-19T02:01:08;10.95;63.23
75372;HTU21D;63956;52.006;5.878;2023-04-19T02:03:38;10.93;63.29
75372;HTU21D;63956;52.006;5.878;2023-04-19T02:06:09;10.92;63.33
75372;HTU21D;63956;52.006;5.878;2023-04-19T02:08:40;10.89;63.37
75372;HTU21D;63956;52.006;5.878;2023-04-19T02:11:12;10.87;63.42
75372;HTU21D;63956;52.006;5.878;2023-04-19T02:13:42;10.85;63.46
75372;HTU21D;63956;52.006;5.878;2023-04-19T02:16:11;10.85;63.32
75372;HTU21D;63956;52.006;5.878;2023-04-19T02:18:40;10.81;63.47
75372;HTU21D;63956;52.006;5.878;2023-04-19T02:21:09;10.79;63.36
75372;HTU21D;63956;52.006;5.878;2023-04-19T02:23:38;10.74;63.49
75372;HTU21D;63956;52.006;5.878;2023-04-19T02:26:07;10.71;63.63
75372;HTU21D;63956;52.006;5.878;2023-04-19T02:28:38;10.72;63.45
75372;HTU21D;63956;52.006;5.878;2023-04-19T02:31:08;10.68;63.65
75372;HTU21D;63956;52.006;5.878;2023-04-19T02:33:37;10.67;63.85
75372;HTU21D;63956;52.006;5.878;2023-04-19T02:36:07;10.67;63.85
75372;HTU21D;63956;52.006;5.878;2023-04-19T02:38:37;10.70;63.89
75372;HTU21D;63956;52.006;5.878;2023-04-19T02:41:06;10.71;63.92
75372;HTU21D;63956;52.006;5.878;2023-04-19T02:43:41;10.73;63.95
75372;HTU21D;63956;52.006;5.878;2023-04-19T02:46:12;10.75;63.98
75372;HTU21D;63956;52.006;5.878;2023-04-19T02:48:41;10.79;63.96
75372;HTU21D;63956;52.006;5.878;2023-04-19T02:51:14;10.80;63.98
75372;HTU21D;63956;52.006;5.878;2023-04-19T02:53:44;10.83;63.96
75372;HTU21D;63956;52.006;5.878;2023-04-19T02:56:13;10.83;63.99
75372;HTU21D;63956;52.006;5.878;2023-04-19T02:58:45;10.89;63.81
75372;HTU21D;63956;52.006;5.878;2023-04-19T03:01:14;10.87;63.89
75372;HTU21D;63956;52.006;5.878;2023-04-19T03:03:43;10.88;63.94
75372;HTU21D;63956;52.006;5.878;2023-04-19T03:06:12;10.94;63.73
75372;HTU21D;63956;52.006;5.878;2023-04-19T03:08:42;10.93;63.79
75372;HTU21D;63956;52.006;5.878;2023-04-19T03:11:11;10.93;63.87
75372;HTU21D;63956;52.006;5.878;2023-04-19T03:13:41;10.96;63.92
75372;HTU21D;63956;52.006;5.878;2023-04-19T03:16:14;10.97;63.97
75372;HTU21D;63956;52.006;5.878;2023-04-19T03:18:44;10.97;64.03
75372;HTU21D;63956;52.006;5.878;2023-04-19T03:21:13;10.98;64.02
75372;HTU21D;63956;52.006;5.878;2023-04-19T03:23:48;11.02;63.87
75372;HTU21D;63956;52.006;5.878;2023-04-19T03:26:17;11.02;63.93
75372;HTU21D;63956;52.006;5.878;2023-04-19T03:28:51;11.02;63.95
75372;HTU21D;63956;52.006;5.878;2023-04-19T03:31:59;11.04;63.91
75372;HTU21D;63956;52.006;5.878;2023-04-19T03:34:29;11.05;63.95
75372;HTU21D;63956;52.006;5.878;2023-04-19T03:36:59;11.08;63.89
75372;HTU21D;63956;52.006;5.878;2023-04-19T03:39:30;11.08;63.91
75372;HTU21D;63956;52.006;5.878;2023-04-19T03:42:03;11.09;63.90
75372;HTU21D;63956;52.006;5.878;2023-04-19T03:44:56;11.12;63.82
75372;HTU21D;63956;52.006;5.878;2023-04-19T03:47:29;11.11;63.79
75372;HTU21D;63956;52.006;5.878;2023-04-19T03:49:59;11.11;63.76
75372;HTU21D;63956;52.006;5.878;2023-04-19T03:52:31;11.10;63.81
75372;HTU21D;63956;52.006;5.878;2023-04-19T03:55:01;11.10;63.80
75372;HTU21D;63956;52.006;5.878;2023-04-19T03:57:36;11.10;63.80
75372;HTU21D;63956;52.006;5.878;2023-04-19T04:00:18;11.07;63.69
75372;HTU21D;63956;52.006;5.878;2023-04-19T04:02:56;11.02;63.76
75372;HTU21D;63956;52.006;5.878;2023-04-19T04:05:26;11.01;63.78
75372;HTU21D;63956;52.006;5.878;2023-04-19T04:07:55;11.00;63.74
75372;HTU21D;63956;52.006;5.878;2023-04-19T04:10:25;10.98;63.67
75372;HTU21D;63956;52.006;5.878;2023-04-19T04:12:55;10.97;63.63
75372;HTU21D;63956;52.006;5.878;2023-04-19T04:15:32;10.96;63.64
75372;HTU21D;63956;52.006;5.878;2023-04-19T04:18:04;10.93;63.57
75372;HTU21D;63956;52.006;5.878;2023-04-19T04:20:33;10.93;63.61
75372;HTU21D;63956;52.006;5.878;2023-04-19T04:23:07;10.87;63.63
75372;HTU21D;63956;52.006;5.878;2023-04-19T04:25:41;10.87;63.64
75372;HTU21D;63956;52.006;5.878;2023-04-19T04:28:13;10.83;63.73
75372;HTU21D;63956;52.006;5.878;2023-04-19T04:30:42;10.79;63.78
75372;HTU21D;63956;52.006;5.878;2023-04-19T04:33:15;10.77;63.69
75372;HTU21D;63956;52.006;5.878;2023-04-19T04:35:44;10.73;63.72
75372;HTU21D;63956;52.006;5.878;2023-04-19T04:38:20;10.68;63.83
75372;HTU21D;63956;52.006;5.878;2023-04-19T04:40:49;10.66;63.87
75372;HTU21D;63956;52.006;5.878;2023-04-19T04:43:19;10.63;63.85
75372;HTU21D;63956;52.006;5.878;2023-04-19T04:45:49;10.57;63.91
75372;HTU21D;63956;52.006;5.878;2023-04-19T04:48:23;10.54;63.92
75372;HTU21D;63956;52.006;5.878;2023-04-19T04:50:52;10.52;63.94
75372;HTU21D;63956;52.006;5.878;2023-04-19T04:53:24;10.48;63.92
75372;HTU21D;63956;52.006;5.878;2023-04-19T04:55:53;10.43;63.92
75372;HTU21D;63956;52.006;5.878;2023-04-19T04:58:22;10.40;63.91
75372;HTU21D;63956;52.006;5.878;2023-04-19T05:00:57;10.38;63.90
75372;HTU21D;63956;52.006;5.878;2023-04-19T05:03:30;10.33;63.92
75372;HTU21D;63956;52.006;5.878;2023-04-19T05:06:03;10.31;63.91
75372;HTU21D;63956;52.006;5.878;2023-04-19T05:08:32;10.28;63.89
75372;HTU21D;63956;52.006;5.878;2023-04-19T05:11:13;10.25;63.95
75372;HTU21D;63956;52.006;5.878;2023-04-19T05:13:43;10.21;63.90
75372;HTU21D;63956;52.006;5.878;2023-04-19T05:16:13;10.20;63.95
75372;HTU21D;63956;52.006;5.878;2023-04-19T05:18:47;10.16;63.98
75372;HTU21D;63956;52.006;5.878;2023-04-19T05:21:17;10.15;63.96
75372;HTU21D;63956;52.006;5.878;2023-04-19T05:23:47;10.12;63.92
75372;HTU21D;63956;52.006;5.878;2023-04-19T05:26:18;10.10;64.01
75372;HTU21D;63956;52.006;5.878;2023-04-19T05:28:49;10.09;63.96
75372;HTU21D;63956;52.006;5.878;2023-04-19T05:31:33;10.07;63.92
75372;HTU21D;63956;52.006;5.878;2023-04-19T05:34:18;10.06;63.91
75372;HTU21D;63956;52.006;5.878;2023-04-19T05:36:47;10.06;63.92
75372;HTU21D;63956;52.006;5.878;2023-04-19T05:39:17;10.01;63.88
75372;HTU21D;63956;52.006;5.878;2023-04-19T05:41:46;10.03;63.82
75372;HTU21D;63956;52.006;5.878;2023-04-19T05:44:15;10.03;63.73
75372;HTU21D;63956;52.006;5.878;2023-04-19T05:46:44;9.99;63.72
75372;HTU21D;63956;52.006;5.878;2023-04-19T05:49:22;9.97;63.73
75372;HTU21D;63956;52.006;5.878;2023-04-19T05:52:03;9.94;63.53
75372;HTU21D;63956;52.006;5.878;2023-04-19T05:54:42;9.91;63.58
75372;HTU21D;63956;52.006;5.878;2023-04-19T05:57:12;9.90;63.44
75372;HTU21D;63956;52.006;5.878;2023-04-19T05:59:41;9.90;63.45
75372;HTU21D;63956;52.006;5.878;2023-04-19T06:02:13;9.90;63.44
75372;HTU21D;63956;52.006;5.878;2023-04-19T06:04:45;9.88;63.24
75372;HTU21D;63956;52.006;5.878;2023-04-19T06:07:14;9.88;63.13
75372;HTU21D;63956;52.006;5.878;2023-04-19T06:09:43;9.86;63.22
75372;HTU21D;63956;52.006;5.878;2023-04-19T06:12:12;9.82;62.92
75372;HTU21D;63956;52.006;5.878;2023-04-19T06:14:41;9.83;63.02
75372;HTU21D;63956;52.006;5.878;2023-04-19T06:17:10;9.80;62.60
75372;HTU21D;63956;52.006;5.878;2023-04-19T06:19:41;9.80;62.65
75372;HTU21D;63956;52.006;5.878;2023-04-19T06:22:13;9.80;62.35
75372;HTU21D;63956;52.006;5.878;2023-04-19T06:24:43;9.81;62.24
75372;HTU21D;63956;52.006;5.878;2023-04-19T06:27:13;9.83;61.84
75372;HTU21D;63956;52.006;5.878;2023-04-19T06:29:43;9.86;61.85
75372;HTU21D;63956;52.006;5.878;2023-04-19T06:32:12;9.91;61.90
75372;HTU21D;63956;52.006;5.878;2023-04-19T06:34:41;9.94;61.49
75372;HTU21D;63956;52.006;5.878;2023-04-19T06:37:12;9.99;61.37
75372;HTU21D;63956;52.006;5.878;2023-04-19T06:39:42;10.04;60.99
75372;HTU21D;63956;52.006;5.878;2023-04-19T06:42:10;10.10;61.15
75372;HTU21D;63956;52.006;5.878;2023-04-19T06:44:40;10.12;60.46
75372;HTU21D;63956;52.006;5.878;2023-04-19T06:47:09;10.15;60.30
75372;HTU21D;63956;52.006;5.878;2023-04-19T06:49:38;10.19;60.26
75372;HTU21D;63956;52.006;5.878;2023-04-19T06:52:07;10.27;60.31
75372;HTU21D;63956;52.006;5.878;2023-04-19T06:54:39;10.30;59.83
75372;HTU21D;63956;52.006;5.878;2023-04-19T06:57:08;10.34;59.45
75372;HTU21D;63956;52.006;5.878;2023-04-19T06:59:37;10.45;59.77
75372;HTU21D;63956;52.006;5.878;2023-04-19T07:02:06;10.46;59.22
75372;HTU21D;63956;52.006;5.878;2023-04-19T07:04:35;10.51;59.03
75372;HTU21D;63956;52.006;5.878;2023-04-19T07:07:04;10.57;58.90
75372;HTU21D;63956;52.006;5.878;2023-04-19T07:09:33;10.64;58.73
75372;HTU21D;63956;52.006;5.878;2023-04-19T07:12:05;10.72;58.12
75372;HTU21D;63956;52.006;5.878;2023-04-19T07:14:35;10.78;58.02
75372;HTU21D;63956;52.006;5.878;2023-04-19T07:17:04;10.85;58.26
75372;HTU21D;63956;52.006;5.878;2023-04-19T07:19:33;10.88;57.80
75372;HTU21D;63956;52.006;5.878;2023-04-19T07:22:02;10.93;57.65
75372;HTU21D;63956;52.006;5.878;2023-04-19T07:24:32;10.97;57.37
75372;HTU21D;63956;52.006;5.878;2023-04-19T07:27:01;11.04;57.66
75372;HTU21D;63956;52.006;5.878;2023-04-19T07:29:33;11.08;57.34
75372;HTU21D;63956;52.006;5.878;2023-04-19T07:32:02;11.11;56.98
75372;HTU21D;63956;52.006;5.878;2023-04-19T07:34:32;11.14;56.73
75372;HTU21D;63956;52.006;5.878;2023-04-19T07:37:01;11.19;56.98
75372;HTU21D;63956;52.006;5.878;2023-04-19T07:39:30;11.18;56.46
75372;HTU21D;63956;52.006;5.878;2023-04-19T07:41:59;11.23;56.69
75372;HTU21D;63956;52.006;5.878;2023-04-19T07:44:28;11.18;55.85
75372;HTU21D;63956;52.006;5.878;2023-04-19T07:47:00;11.17;55.65
75372;HTU21D;63956;52.006;5.878;2023-04-19T07:49:29;11.20;55.63
75372;HTU21D;63956;52.006;5.878;2023-04-19T07:51:59;11.25;55.22
75372;HTU21D;63956;52.006;5.878;2023-04-19T07:54:29;11.28;54.94
75372;HTU21D;63956;52.006;5.878;2023-04-19T07:56:58;11.34;54.80
75372;HTU21D;63956;52.006;5.878;2023-04-19T07:59:28;11.39;54.87
75372;HTU21D;63956;52.006;5.878;2023-04-19T08:02:01;11.45;54.79
75372;HTU21D;63956;52.006;5.878;2023-04-19T08:04:30;11.51;54.41
75372;HTU21D;63956;52.006;5.878;2023-04-19T08:06:59;11.57;54.69
75372;HTU21D;63956;52.006;5.878;2023-04-19T08:09:29;11.67;54.41
75372;HTU21D;63956;52.006;5.878;2023-04-19T08:11:58;11.83;54.62
75372;HTU21D;63956;52.006;5.878;2023-04-19T08:14:27;11.91;53.97
75372;HTU21D;63956;52.006;5.878;2023-04-19T08:16:56;12.10;54.20
75372;HTU21D;63956;52.006;5.878;2023-04-19T08:19:28;12.20;53.59
75372;HTU21D;63956;52.006;5.878;2023-04-19T08:21:57;12.28;53.50
75372;HTU21D;63956;52.006;5.878;2023-04-19T08:24:26;12.46;53.64
75372;HTU21D;63956;52.006;5.878;2023-04-19T08:26:56;12.55;52.97
75372;HTU21D;63956;52.006;5.878;2023-04-19T08:29:25;12.65;52.50
75372;HTU21D;63956;52.006;5.878;2023-04-19T08:31:54;12.78;52.01
75372;HTU21D;63956;52.006;5.878;2023-04-19T08:34:23;12.91;51.81
75372;HTU21D;63956;52.006;5.878;2023-04-19T08:36:55;13.08;52.24
75372;HTU21D;63956;52.006;5.878;2023-04-19T08:39:24;13.09;51.52
75372;HTU21D;63956;52.006;5.878;2023-04-19T08:41:52;13.21;51.85
75372;HTU21D;63956;52.006;5.878;2023-04-19T08:44:23;13.18;50.86
75372;HTU21D;63956;52.006;5.878;2023-04-19T08:46:53;13.15;50.76
75372;HTU21D;63956;52.006;5.878;2023-04-19T08:49:22;13.16;50.25
75372;HTU21D;63956;52.006;5.878;2023-04-19T08:51:54;13.16;50.35
75372;HTU21D;63956;52.006;5.878;2023-04-19T08:54:25;13.21;50.22
75372;HTU21D;63956;52.006;5.878;2023-04-19T08:56:57;13.30;49.95
75372;HTU21D;63956;52.006;5.878;2023-04-19T08:59:27;13.37;49.28
75372;HTU21D;63956;52.006;5.878;2023-04-19T09:01:59;13.38;49.05
75372;HTU21D;63956;52.006;5.878;2023-04-19T09:04:29;13.46;49.31
75372;HTU21D;63956;52.006;5.878;2023-04-19T09:07:00;13.51;48.44
75372;HTU21D;63956;52.006;5.878;2023-04-19T09:09:30;13.52;48.40
75372;HTU21D;63956;52.006;5.878;2023-04-19T09:11:59;13.58;48.41
75372;HTU21D;63956;52.006;5.878;2023-04-19T09:14:28;13.66;47.97
75372;HTU21D;63956;52.006;5.878;2023-04-19T09:17:12;13.76;48.50
75372;HTU21D;63956;52.006;5.878;2023-04-19T09:19:45;13.89;49.03
75372;HTU21D;63956;52.006;5.878;2023-04-19T09:22:17;14.09;49.30
75372;HTU21D;63956;52.006;5.878;2023-04-19T09:24:47;14.29;48.71
75372;HTU21D;63956;52.006;5.878;2023-04-19T09:27:24;14.48;47.93
75372;HTU21D;63956;52.006;5.878;2023-04-19T09:29:54;14.57;46.93
75372;HTU21D;63956;52.006;5.878;2023-04-19T09:32:24;14.69;47.19
75372;HTU21D;63956;52.006;5.878;2023-04-19T09:34:55;14.80;47.35
75372;HTU21D;63956;52.006;5.878;2023-04-19T09:37:27;14.93;47.05
75372;HTU21D;63956;52.006;5.878;2023-04-19T09:39:57;15.03;47.42
75372;HTU21D;63956;52.006;5.878;2023-04-19T09:42:43;15.16;47.01
75372;HTU21D;63956;52.006;5.878;2023-04-19T09:45:13;15.24;47.05
75372;HTU21D;63956;52.006;5.878;2023-04-19T09:47:43;15.31;46.01
75372;HTU21D;63956;52.006;5.878;2023-04-19T09:50:12;15.37;46.25
75372;HTU21D;63956;52.006;5.878;2023-04-19T09:52:44;15.39;46.02
75372;HTU21D;63956;52.006;5.878;2023-04-19T09:55:14;15.48;45.57
75372;HTU21D;63956;52.006;5.878;2023-04-19T09:57:43;15.59;45.67
75372;HTU21D;63956;52.006;5.878;2023-04-19T10:00:13;15.72;45.68
75372;HTU21D;63956;52.006;5.878;2023-04-19T10:02:44;15.84;44.51
75372;HTU21D;63956;52.006;5.878;2023-04-19T10:05:20;15.96;44.55
75372;HTU21D;63956;52.006;5.878;2023-04-19T10:07:52;16.10;44.71
75372;HTU21D;63956;52.006;5.878;2023-04-19T10:10:25;16.20;44.25
75372;HTU21D;63956;52.006;5.878;2023-04-19T10:12:57;16.29;43.72
75372;HTU21D;63956;52.006;5.878;2023-04-19T10:15:28;16.34;43.74
75372;HTU21D;63956;52.006;5.878;2023-04-19T10:17:58;16.35;43.48
75372;HTU21D;63956;52.006;5.878;2023-04-19T10:20:32;16.36;42.71
75372;HTU21D;63956;52.006;5.878;2023-04-19T10:23:06;16.34;42.44
75372;HTU21D;63956;52.006;5.878;2023-04-19T10:25:36;16.33;42.10
75372;HTU21D;63956;52.006;5.878;2023-04-19T10:28:06;16.34;42.16
75372;HTU21D;63956;52.006;5.878;2023-04-19T10:30:35;16.36;42.39
75372;HTU21D;63956;52.006;5.878;2023-04-19T10:33:04;16.40;42.64
75372;HTU21D;63956;52.006;5.878;2023-04-19T10:35:34;16.44;42.27
75372;HTU21D;63956;52.006;5.878;2023-04-19T10:38:08;16.47;41.34
75372;HTU21D;63956;52.006;5.878;2023-04-19T10:40:56;16.46;41.90
75372;HTU21D;63956;52.006;5.878;2023-04-19T10:43:26;16.46;41.81
75372;HTU21D;63956;52.006;5.878;2023-04-19T10:46:00;16.52;41.88
75372;HTU21D;63956;52.006;5.878;2023-04-19T10:48:34;16.57;41.93
75372;HTU21D;63956;52.006;5.878;2023-04-19T10:51:07;16.63;41.34
75372;HTU21D;63956;52.006;5.878;2023-04-19T10:53:46;16.66;41.58
75372;HTU21D;63956;52.006;5.878;2023-04-19T10:56:17;16.62;41.45
75372;HTU21D;63956;52.006;5.878;2023-04-19T10:59:11;16.58;41.12
75372;HTU21D;63956;52.006;5.878;2023-04-19T11:01:48;16.48;41.20
75372;HTU21D;63956;52.006;5.878;2023-04-19T11:04:18;16.45;40.64
75372;HTU21D;63956;52.006;5.878;2023-04-19T11:07:00;16.44;40.83
75372;HTU21D;63956;52.006;5.878;2023-04-19T11:09:34;16.39;40.46
75372;HTU21D;63956;52.006;5.878;2023-04-19T11:12:06;16.27;39.98
75372;HTU21D;63956;52.006;5.878;2023-04-19T11:14:36;16.18;39.74
75372;HTU21D;63956;52.006;5.878;2023-04-19T11:17:14;16.13;39.97
75372;HTU21D;63956;52.006;5.878;2023-04-19T11:19:44;16.07;39.52
75372;HTU21D;63956;52.006;5.878;2023-04-19T11:22:14;16.02;39.17
75372;HTU21D;63956;52.006;5.878;2023-04-19T11:24:49;15.99;39.43
75372;HTU21D;63956;52.006;5.878;2023-04-19T11:27:18;16.00;39.56
75372;HTU21D;63956;52.006;5.878;2023-04-19T11:29:47;16.03;39.57
75372;HTU21D;63956;52.006;5.878;2023-04-19T11:32:20;16.04;39.08
75372;HTU21D;63956;52.006;5.878;2023-04-19T11:34:49;16.02;38.53
75372;HTU21D;63956;52.006;5.878;2023-04-19T11:37:18;16.01;39.02
75372;HTU21D;63956;52.006;5.878;2023-04-19T11:39:50;16.00;38.96
75372;HTU21D;63956;52.006;5.878;2023-04-19T11:42:19;16.00;38.52
75372;HTU21D;63956;52.006;5.878;2023-04-19T11:44:49;15.99;38.03
75372;HTU21D;63956;52.006;5.878;2023-04-19T11:47:19;15.99;37.74
75372;HTU21D;63956;52.006;5.878;2023-04-19T11:49:48;15.95;37.69
75372;HTU21D;63956;52.006;5.878;2023-04-19T11:52:22;15.93;37.61
75372;HTU21D;63956;52.006;5.878;2023-04-19T11:54:54;15.92;37.89
75372;HTU21D;63956;52.006;5.878;2023-04-19T11:57:27;15.99;37.62
75372;HTU21D;63956;52.006;5.878;2023-04-19T12:00:05;16.05;37.78
75372;HTU21D;63956;52.006;5.878;2023-04-19T12:02:42;16.12;37.49
75372;HTU21D;63956;52.006;5.878;2023-04-19T12:05:12;16.13;36.98
75372;HTU21D;63956;52.006;5.878;2023-04-19T12:08:00;16.13;36.95
75372;HTU21D;63956;52.006;5.878;2023-04-19T12:10:32;16.13;36.32
75372;HTU21D;63956;52.006;5.878;2023-04-19T12:13:02;16.12;36.22
75372;HTU21D;63956;52.006;5.878;2023-04-19T12:15:45;16.15;36.41
75372;HTU21D;63956;52.006;5.878;2023-04-19T12:18:14;16.27;36.34
75372;HTU21D;63956;52.006;5.878;2023-04-19T12:20:44;16.40;35.89
75372;HTU21D;63956;52.006;5.878;2023-04-19T12:23:14;16.56;35.86
75372;HTU21D;63956;52.006;5.878;2023-04-19T12:25:47;16.69;36.02
75372;HTU21D;63956;52.006;5.878;2023-04-19T12:28:17;16.81;35.58
75372;HTU21D;63956;52.006;5.878;2023-04-19T12:30:46;16.90;35.52
75372;HTU21D;63956;52.006;5.878;2023-04-19T12:33:15;17.02;35.20
75372;HTU21D;63956;52.006;5.878;2023-04-19T12:35:44;17.11;35.02
75372;HTU21D;63956;52.006;5.878;2023-04-19T12:38:13;17.22;35.11
75372;HTU21D;63956;52.006;5.878;2023-04-19T12:40:42;17.26;34.69
75372;HTU21D;63956;52.006;5.878;2023-04-19T12:43:14;17.35;34.89
75372;HTU21D;63956;52.006;5.878;2023-04-19T12:45:43;17.40;34.82
75372;HTU21D;63956;52.006;5.878;2023-04-19T12:48:12;17.47;34.65
75372;HTU21D;63956;52.006;5.878;2023-04-19T12:50:41;17.55;35.09
75372;HTU21D;63956;52.006;5.878;2023-04-19T12:53:10;17.69;34.58
75372;HTU21D;63956;52.006;5.878;2023-04-19T12:55:39;17.83;35.04
75372;HTU21D;63956;52.006;5.878;2023-04-19T12:58:15;17.96;35.07
75372;HTU21D;63956;52.006;5.878;2023-04-19T13:00:46;18.06;34.31
75372;HTU21D;63956;52.006;5.878;2023-04-19T13:03:15;18.13;34.14
75372;HTU21D;63956;52.006;5.878;2023-04-19T13:05:44;18.23;34.45
75372;HTU21D;63956;52.006;5.878;2023-04-19T13:08:14;18.36;34.66
75372;HTU21D;63956;52.006;5.878;2023-04-19T13:10:46;18.41;33.63
75372;HTU21D;63956;52.006;5.878;2023-04-19T13:13:17;18.44;33.79
75372;HTU21D;63956;52.006;5.878;2023-04-19T13:15:47;18.50;33.92
75372;HTU21D;63956;52.006;5.878;2023-04-19T13:18:16;18.58;34.11
75372;HTU21D;63956;52.006;5.878;2023-04-19T13:20:46;18.66;33.77
75372;HTU21D;63956;52.006;5.878;2023-04-19T13:23:15;18.78;33.22
75372;HTU21D;63956;52.006;5.878;2023-04-19T13:25:45;18.83;32.67
75372;HTU21D;63956;52.006;5.878;2023-04-19T13:28:16;18.91;32.76
75372;HTU21D;63956;52.006;5.878;2023-04-19T13:30:45;18.99;32.61
75372;HTU21D;63956;52.006;5.878;2023-04-19T13:33:15;19.05;32.15
75372;HTU21D;63956;52.006;5.878;2023-04-19T13:35:44;19.01;31.54
75372;HTU21D;63956;52.006;5.878;2023-04-19T13:38:13;18.95;31.86
75372;HTU21D;63956;52.006;5.878;2023-04-19T13:40:43;18.97;31.59
75372;HTU21D;63956;52.006;5.878;2023-04-19T13:43:12;18.99;31.99
75372;HTU21D;63956;52.006;5.878;2023-04-19T13:45:44;19.05;31.87
75372;HTU21D;63956;52.006;5.878;2023-04-19T13:48:14;19.10;31.76
75372;HTU21D;63956;52.006;5.878;2023-04-19T13:50:43;19.13;31.93
75372;HTU21D;63956;52.006;5.878;2023-04-19T13:53:12;19.17;31.67
75372;HTU21D;63956;52.006;5.878;2023-04-19T13:55:41;19.20;31.56
75372;HTU21D;63956;52.006;5.878;2023-04-19T13:58:10;19.16;31.71
75372;HTU21D;63956;52.006;5.878;2023-04-19T14:00:39;19.20;31.93
75372;HTU21D;63956;52.006;5.878;2023-04-19T14:03:11;19.21;31.32
75372;HTU21D;63956;52.006;5.878;2023-04-19T14:05:40;19.20;31.41
75372;HTU21D;63956;52.006;5.878;2023-04-19T14:08:09;19.18;31.37
75372;HTU21D;63956;52.006;5.878;2023-04-19T14:10:38;19.18;31.50
75372;HTU21D;63956;52.006;5.878;2023-04-19T14:13:07;19.18;31.26
75372;HTU21D;63956;52.006;5.878;2023-04-19T14:15:36;19.15;31.33
75372;HTU21D;63956;52.006;5.878;2023-04-19T14:18:06;19.13;31.12
75372;HTU21D;63956;52.006;5.878;2023-04-19T14:20:37;19.08;31.14
75372;HTU21D;63956;52.006;5.878;2023-04-19T14:23:06;19.02;31.24
75372;HTU21D;63956;52.006;5.878;2023-04-19T14:25:36;18.95;31.29
75372;HTU21D;63956;52.006;5.878;2023-04-19T14:28:05;18.87;31.51
75372;HTU21D;63956;52.006;5.878;2023-04-19T14:30:34;18.88;31.64
75372;HTU21D;63956;52.006;5.878;2023-04-19T14:33:03;18.91;31.73
75372;HTU21D;63956;52.006;5.878;2023-04-19T14:35:32;18.91;31.47
75372;HTU21D;63956;52.006;5.878;2023-04-19T14:38:04;18.89;31.78
75372;HTU21D;63956;52.006;5.878;2023-04-19T14:40:33;18.84;31.96
75372;HTU21D;63956;52.006;5.878;2023-04-19T14:43:03;18.85;32.08
75372;HTU21D;63956;52.006;5.878;2023-04-19T14:45:32;18.85;32.02
75372;HTU21D;63956;52.006;5.878;2023-04-19T14:48:01;18.82;32.05
75372;HTU21D;63956;52.006;5.878;2023-04-19T14:50:30;18.78;32.29
75372;HTU21D;63956;52.006;5.878;2023-04-19T14:52:59;18.72;31.94
75372;HTU21D;63956;52.006;5.878;2023-04-19T14:55:31;18.68;32.32
75372;HTU21D;63956;52.006;5.878;2023-04-19T14:58:00;18.66;32.51
75372;HTU21D;63956;52.006;5.878;2023-04-19T15:00:29;18.64;32.35
75372;HTU21D;63956;52.006;5.878;2023-04-19T15:02:58;18.62;31.82
75372;HTU21D;63956;52.006;5.878;2023-04-19T15:05:27;18.58;31.99
75372;HTU21D;63956;52.006;5.878;2023-04-19T15:07:56;18.56;32.44
75372;HTU21D;63956;52.006;5.878;2023-04-19T15:10:26;18.56;32.42
75372;HTU21D;63956;52.006;5.878;2023-04-19T15:12:57;18.52;32.06
75372;HTU21D;63956;52.006;5.878;2023-04-19T15:15:26;18.47;32.15
75372;HTU21D;63956;52.006;5.878;2023-04-19T15:17:56;18.40;32.19
75372;HTU21D;63956;52.006;5.878;2023-04-19T15:20:25;18.36;32.02
75372;HTU21D;63956;52.006;5.878;2023-04-19T15:22:54;18.30;32.17
75372;HTU21D;63956;52.006;5.878;2023-04-19T15:25:23;18.22;32.26
75372;HTU21D;63956;52.006;5.878;2023-04-19T15:27:52;18.17;32.34
75372;HTU21D;63956;52.006;5.878;2023-04-19T15:30:24;18.12;31.98
75372;HTU21D;63956;52.006;5.878;2023-04-19T15:32:53;18.04;32.11
75372;HTU21D;63956;52.006;5.878;2023-04-19T15:35:22;18.03;31.99
75372;HTU21D;63956;52.006;5.878;2023-04-19T15:37:51;17.96;32.07
75372;HTU21D;63956;52.006;5.878;2023-04-19T15:40:20;17.95;32.49